sensor_id;sensor_type;location;lat;lon;timestamp;P1;durP1;ratioP1;P2;durP2;ratioP2
6791;SDS011;3433;48.730;9.108;2023-04-23T00:00:51;5.60;;;3.20;;
6791;SDS011;3433;48.730;9.108;2023-04-23T00:03:21;2.87;;;2.47;;
6791;SDS011;3433;48.730;9.108;2023-04-23T00:05:52;6.90;;;3.23;;
6791;SDS011;3433;48.730;9.108;2023-04-23T00:08:23;4.47;;;2.67;;
6791;SDS011;3433;48.730;9.108;2023-04-23T00:10:54;3.27;;;2.93;;
6791;SDS011;3433;48.730;9.108;2023-04-23T00:13:22;5.13;;;3.10;;
6791;SDS011;3433;48.730;9.108;2023-04-23T00:15:50;3.27;;;2.93;;
6791;SDS011;3433;48.730;9.108;2023-04-23T00:18:17;3.03;;;2.67;;
6791;SDS011;3433;48.730;9.108;2023-04-23T00:20:44;4.83;;;3.10;;
6791;SDS011;3433;48.730;9.108;2023-04-23T00:23:13;4.63;;;2.90;;
6791;SDS011;3433;48.730;9.108;2023-04-23T00:25:40;4.90;;;3.27;;
6791;SDS011;3433;48.730;9.108;2023-04-23T00:28:08;4.60;;;2.80;;
6791;SDS011;3433;48.730;9.108;2023-04-23T00:30:35;4.90;;;2.57;;
6791;SDS011;3433;48.730;9.108;2023-04-23T00:33:02;3.47;;;2.43;;
6791;SDS011;3433;48.730;9.108;2023-04-23T00:35:29;6.00;;;3.83;;
6791;SDS011;3433;48.730;9.108;2023-04-23T00:37:56;4.07;;;2.80;;
6791;SDS011;3433;48.730;9.108;2023-04-23T00:40:24;3.33;;;2.67;;
6791;SDS011;3433;48.730;9.108;2023-04-23T00:42:51;6.90;;;2.93;;
6791;SDS011;3433;48.730;9.108;2023-04-23T00:45:19;6.83;;;2.97;;
6791;SDS011;3433;48.730;9.108;2023-04-23T00:47:46;3.97;;;2.60;;
6791;SDS011;3433;48.730;9.108;2023-04-23T00:50:14;2.40;;;2.20;;
6791;SDS011;3433;48.730;9.108;2023-04-23T00:52:42;2.83;;;2.43;;
6791;SDS011;3433;48.730;9.108;2023-04-23T00:55:09;2.47;;;2.27;;
6791;SDS011;3433;48.730;9.108;2023-04-23T00:57:37;3.53;;;2.50;;
6791;SDS011;3433;48.730;9.108;2023-04-23T01:00:05;3.10;;;2.70;;
6791;SDS011;3433;48.730;9.108;2023-04-23T01:02:33;5.93;;;2.60;;
6791;SDS011;3433;48.730;9.108;2023-04-23T01:05:02;8.10;;;2.53;;
6791;SDS011;3433;48.730;9.108;2023-04-23T01:07:31;3.30;;;2.33;;
6791;SDS011;3433;48.730;9.108;2023-04-23T01:10:00;3.53;;;2.50;;
6791;SDS011;3433;48.730;9.108;2023-04-23T01:12:28;3.17;;;2.70;;
6791;SDS011;3433;48.730;9.108;2023-04-23T01:14:57;3.33;;;2.50;;
6791;SDS011;3433;48.730;9.108;2023-04-23T01:17:24;2.23;;;2.03;;
6791;SDS011;3433;48.730;9.108;2023-04-23T01:19:52;3.83;;;2.27;;
6791;SDS011;3433;48.730;9.108;2023-04-23T01:22:20;2.33;;;2.13;;
6791;SDS011;3433;48.730;9.108;2023-04-23T01:24:47;4.70;;;3.03;;
6791;SDS011;3433;48.730;9.108;2023-04-23T01:27:15;3.40;;;2.53;;
6791;SDS011;3433;48.730;9.108;2023-04-23T01:29:44;3.93;;;2.37;;
6791;SDS011;3433;48.730;9.108;2023-04-23T01:32:12;5.67;;;3.47;;
6791;SDS011;3433;48.730;9.108;2023-04-23T01:34:40;2.53;;;2.33;;
6791;SDS011;3433;48.730;9.108;2023-04-23T01:37:07;2.47;;;2.27;;
6791;SDS011;3433;48.730;9.108;2023-04-23T01:39:36;3.93;;;2.40;;
6791;SDS011;3433;48.730;9.108;2023-04-23T01:42:03;3.93;;;2.47;;
6791;SDS011;3433;48.730;9.108;2023-04-23T01:44:32;4.50;;;2.33;;
6791;SDS011;3433;48.730;9.108;2023-04-23T01:46:59;3.10;;;2.80;;
6791;SDS011;3433;48.730;9.108;2023-04-23T01:49:26;4.83;;;2.30;;
6791;SDS011;3433;48.730;9.108;2023-04-23T01:51:53;3.10;;;2.40;;
6791;SDS011;3433;48.730;9.108;2023-04-23T01:54:20;3.00;;;2.70;;
6791;SDS011;3433;48.730;9.108;2023-04-23T01:56:48;5.33;;;2.97;;
6791;SDS011;3433;48.730;9.108;2023-04-23T01:59:19;2.73;;;2.53;;
6791;SDS011;3433;48.730;9.108;2023-04-23T02:01:46;4.70;;;2.50;;
6791;SDS011;3433;48.730;9.108;2023-04-23T02:04:14;2.43;;;2.23;;
6791;SDS011;3433;48.730;9.108;2023-04-23T02:06:42;5.60;;;2.57;;
6791;SDS011;3433;48.730;9.108;2023-04-23T02:09:12;2.53;;;2.33;;
6791;SDS011;3433;48.730;9.108;2023-04-23T02:11:39;3.17;;;2.57;;
6791;SDS011;3433;48.730;9.108;2023-04-23T02:14:07;2.87;;;2.60;;
6791;SDS011;3433;48.730;9.108;2023-04-23T02:16:35;2.97;;;2.10;;
6791;SDS011;3433;48.730;9.108;2023-04-23T02:19:02;3.37;;;2.40;;
6791;SDS011;3433;48.730;9.108;2023-04-23T02:21:29;3.20;;;2.43;;
6791;SDS011;3433;48.730;9.108;2023-04-23T02:23:57;3.30;;;2.17;;
6791;SDS011;3433;48.730;9.108;2023-04-23T02:26:23;2.83;;;2.53;;
6791;SDS011;3433;48.730;9.108;2023-04-23T02:28:53;3.77;;;2.10;;
6791;SDS011;3433;48.730;9.108;2023-04-23T02:31:22;3.10;;;2.60;;
6791;SDS011;3433;48.730;9.108;2023-04-23T02:33:49;2.40;;;2.20;;
6791;SDS011;3433;48.730;9.108;2023-04-23T02:36:16;2.07;;;1.87;;
6791;SDS011;3433;48.730;9.108;2023-04-23T02:38:43;2.47;;;2.27;;
6791;SDS011;3433;48.730;9.108;2023-04-23T02:41:12;3.23;;;2.20;;
6791;SDS011;3433;48.730;9.108;2023-04-23T02:43:39;2.90;;;2.70;;
6791;SDS011;3433;48.730;9.108;2023-04-23T02:46:06;2.70;;;2.23;;
6791;SDS011;3433;48.730;9.108;2023-04-23T02:48:36;2.80;;;2.27;;
6791;SDS011;3433;48.730;9.108;2023-04-23T02:51:04;2.30;;;2.10;;
6791;SDS011;3433;48.730;9.108;2023-04-23T02:53:31;3.53;;;2.57;;
6791;SDS011;3433;48.730;9.108;2023-04-23T02:55:58;3.00;;;2.30;;
6791;SDS011;3433;48.730;9.108;2023-04-23T02:58:27;2.83;;;2.40;;
6791;SDS011;3433;48.730;9.108;2023-04-23T03:00:54;2.40;;;2.20;;
6791;SDS011;3433;48.730;9.108;2023-04-23T03:03:21;2.43;;;2.30;;
6791;SDS011;3433;48.730;9.108;2023-04-23T03:05:52;2.20;;;2.00;;
6791;SDS011;3433;48.730;9.108;2023-04-23T03:08:19;2.23;;;2.03;;
6791;SDS011;3433;48.730;9.108;2023-04-23T03:10:46;3.43;;;2.27;;
6791;SDS011;3433;48.730;9.108;2023-04-23T03:13:13;2.27;;;1.50;;
6791;SDS011;3433;48.730;9.108;2023-04-23T03:15:39;1.70;;;1.60;;
6791;SDS011;3433;48.730;9.108;2023-04-23T03:18:07;2.20;;;1.93;;
6791;SDS011;3433;48.730;9.108;2023-04-23T03:20:34;2.10;;;1.90;;
6791;SDS011;3433;48.730;9.108;2023-04-23T03:23:02;2.27;;;1.70;;
6791;SDS011;3433;48.730;9.108;2023-04-23T03:25:30;2.30;;;1.90;;
6791;SDS011;3433;48.730;9.108;2023-04-23T03:27:57;2.40;;;1.50;;
6791;SDS011;3433;48.730;9.108;2023-04-23T03:30:24;3.00;;;2.00;;
6791;SDS011;3433;48.730;9.108;2023-04-23T03:32:53;2.27;;;2.07;;
6791;SDS011;3433;48.730;9.108;2023-04-23T03:35:21;2.70;;;1.80;;
6791;SDS011;3433;48.730;9.108;2023-04-23T03:37:48;2.17;;;1.97;;
6791;SDS011;3433;48.730;9.108;2023-04-23T03:40:16;2.40;;;1.70;;
6791;SDS011;3433;48.730;9.108;2023-04-23T03:42:44;4.30;;;1.87;;
6791;SDS011;3433;48.730;9.108;2023-04-23T03:45:11;2.17;;;1.80;;
6791;SDS011;3433;48.730;9.108;2023-04-23T03:47:38;2.57;;;2.33;;
6791;SDS011;3433;48.730;9.108;2023-04-23T03:50:06;1.77;;;1.67;;
6791;SDS011;3433;48.730;9.108;2023-04-23T03:52:33;2.80;;;1.60;;
6791;SDS011;3433;48.730;9.108;2023-04-23T03:55:00;1.70;;;1.60;;
6791;SDS011;3433;48.730;9.108;2023-04-23T03:57:29;2.03;;;1.30;;
6791;SDS011;3433;48.730;9.108;2023-04-23T03:59:56;2.27;;;1.67;;
6791;SDS011;3433;48.730;9.108;2023-04-23T04:02:23;2.20;;;1.27;;
6791;SDS011;3433;48.730;9.108;2023-04-23T04:04:50;1.93;;;1.47;;
6791;SDS011;3433;48.730;9.108;2023-04-23T04:07:18;2.30;;;1.27;;
6791;SDS011;3433;48.730;9.108;2023-04-23T04:09:46;1.47;;;1.37;;
6791;SDS011;3433;48.730;9.108;2023-04-23T04:12:13;1.57;;;1.47;;
6791;SDS011;3433;48.730;9.108;2023-04-23T04:14:42;1.17;;;1.07;;
6791;SDS011;3433;48.730;9.108;2023-04-23T04:17:09;1.87;;;1.77;;
6791;SDS011;3433;48.730;9.108;2023-04-23T04:19:39;4.97;;;1.80;;
6791;SDS011;3433;48.730;9.108;2023-04-23T04:22:06;2.10;;;1.40;;
6791;SDS011;3433;48.730;9.108;2023-04-23T04:24:33;1.40;;;1.30;;
6791;SDS011;3433;48.730;9.108;2023-04-23T04:27:00;1.80;;;1.70;;
6791;SDS011;3433;48.730;9.108;2023-04-23T04:29:27;2.70;;;1.93;;
6791;SDS011;3433;48.730;9.108;2023-04-23T04:31:56;1.70;;;1.60;;
6791;SDS011;3433;48.730;9.108;2023-04-23T04:34:23;2.43;;;2.23;;
6791;SDS011;3433;48.730;9.108;2023-04-23T04:36:51;1.90;;;1.73;;
6791;SDS011;3433;48.730;9.108;2023-04-23T04:39:19;1.80;;;1.70;;
6791;SDS011;3433;48.730;9.108;2023-04-23T04:41:46;2.10;;;1.90;;
6791;SDS011;3433;48.730;9.108;2023-04-23T04:44:13;2.63;;;1.67;;
6791;SDS011;3433;48.730;9.108;2023-04-23T04:46:40;1.93;;;1.70;;
6791;SDS011;3433;48.730;9.108;2023-04-23T04:49:09;2.03;;;1.53;;
6791;SDS011;3433;48.730;9.108;2023-04-23T04:51:37;2.50;;;1.90;;
6791;SDS011;3433;48.730;9.108;2023-04-23T04:54:05;2.87;;;1.80;;
6791;SDS011;3433;48.730;9.108;2023-04-23T04:56:32;2.17;;;1.90;;
6791;SDS011;3433;48.730;9.108;2023-04-23T04:59:00;3.13;;;2.00;;
6791;SDS011;3433;48.730;9.108;2023-04-23T05:01:27;1.90;;;1.80;;
6791;SDS011;3433;48.730;9.108;2023-04-23T05:03:55;2.77;;;1.90;;
6791;SDS011;3433;48.730;9.108;2023-04-23T05:06:23;2.17;;;1.93;;
6791;SDS011;3433;48.730;9.108;2023-04-23T05:08:50;2.10;;;1.90;;
6791;SDS011;3433;48.730;9.108;2023-04-23T05:11:17;2.50;;;1.83;;
6791;SDS011;3433;48.730;9.108;2023-04-23T05:13:45;2.20;;;1.90;;
6791;SDS011;3433;48.730;9.108;2023-04-23T05:16:13;1.57;;;1.47;;
6791;SDS011;3433;48.730;9.108;2023-04-23T05:18:40;2.17;;;1.97;;
6791;SDS011;3433;48.730;9.108;2023-04-23T05:21:07;2.60;;;2.00;;
6791;SDS011;3433;48.730;9.108;2023-04-23T05:23:36;1.83;;;1.50;;
6791;SDS011;3433;48.730;9.108;2023-04-23T05:26:02;2.17;;;1.97;;
6791;SDS011;3433;48.730;9.108;2023-04-23T05:28:30;3.93;;;1.77;;
6791;SDS011;3433;48.730;9.108;2023-04-23T05:30:57;2.40;;;1.93;;
6791;SDS011;3433;48.730;9.108;2023-04-23T05:33:25;1.67;;;1.53;;
6791;SDS011;3433;48.730;9.108;2023-04-23T05:35:52;1.87;;;1.70;;
6791;SDS011;3433;48.730;9.108;2023-04-23T05:38:19;1.90;;;1.30;;
6791;SDS011;3433;48.730;9.108;2023-04-23T05:40:48;1.80;;;1.70;;
6791;SDS011;3433;48.730;9.108;2023-04-23T05:43:15;2.27;;;2.07;;
6791;SDS011;3433;48.730;9.108;2023-04-23T05:45:42;3.77;;;1.67;;
6791;SDS011;3433;48.730;9.108;2023-04-23T05:48:08;1.57;;;1.47;;
6791;SDS011;3433;48.730;9.108;2023-04-23T05:50:35;2.07;;;1.97;;
6791;SDS011;3433;48.730;9.108;2023-04-23T05:53:16;1.80;;;1.53;;
6791;SDS011;3433;48.730;9.108;2023-04-23T05:55:50;1.50;;;1.23;;
6791;SDS011;3433;48.730;9.108;2023-04-23T05:58:16;1.70;;;1.60;;
6791;SDS011;3433;48.730;9.108;2023-04-23T06:00:43;1.57;;;1.47;;
6791;SDS011;3433;48.730;9.108;2023-04-23T06:03:10;2.03;;;1.37;;
6791;SDS011;3433;48.730;9.108;2023-04-23T06:05:37;3.17;;;1.90;;
6791;SDS011;3433;48.730;9.108;2023-04-23T06:08:07;1.10;;;1.00;;
6791;SDS011;3433;48.730;9.108;2023-04-23T06:10:34;1.40;;;1.30;;
6791;SDS011;3433;48.730;9.108;2023-04-23T06:13:02;1.33;;;1.23;;
6791;SDS011;3433;48.730;9.108;2023-04-23T06:15:29;4.63;;;1.50;;
6791;SDS011;3433;48.730;9.108;2023-04-23T06:17:57;1.20;;;1.00;;
6791;SDS011;3433;48.730;9.108;2023-04-23T06:20:24;1.20;;;1.20;;
6791;SDS011;3433;48.730;9.108;2023-04-23T06:22:50;1.67;;;1.10;;
6791;SDS011;3433;48.730;9.108;2023-04-23T06:25:17;1.13;;;1.00;;
6791;SDS011;3433;48.730;9.108;2023-04-23T06:27:44;1.10;;;1.00;;
6791;SDS011;3433;48.730;9.108;2023-04-23T06:30:13;3.20;;;1.10;;
6791;SDS011;3433;48.730;9.108;2023-04-23T06:32:40;1.10;;;1.00;;
6791;SDS011;3433;48.730;9.108;2023-04-23T06:35:07;1.00;;;0.90;;
6791;SDS011;3433;48.730;9.108;2023-04-23T06:37:34;1.20;;;1.10;;
6791;SDS011;3433;48.730;9.108;2023-04-23T06:40:01;6.57;;;1.20;;
6791;SDS011;3433;48.730;9.108;2023-04-23T06:42:28;1.30;;;1.00;;
6791;SDS011;3433;48.730;9.108;2023-04-23T06:44:55;0.80;;;0.80;;
6791;SDS011;3433;48.730;9.108;2023-04-23T06:47:25;0.80;;;0.70;;
6791;SDS011;3433;48.730;9.108;2023-04-23T06:49:51;1.00;;;0.90;;
6791;SDS011;3433;48.730;9.108;2023-04-23T06:52:18;1.47;;;1.30;;
6791;SDS011;3433;48.730;9.108;2023-04-23T06:54:45;1.10;;;0.80;;
6791;SDS011;3433;48.730;9.108;2023-04-23T06:57:12;1.37;;;0.90;;
6791;SDS011;3433;48.730;9.108;2023-04-23T06:59:40;1.00;;;0.90;;
6791;SDS011;3433;48.730;9.108;2023-04-23T07:02:07;1.37;;;0.97;;
6791;SDS011;3433;48.730;9.108;2023-04-23T07:04:35;1.40;;;0.90;;
6791;SDS011;3433;48.730;9.108;2023-04-23T07:07:02;0.80;;;0.80;;
6791;SDS011;3433;48.730;9.108;2023-04-23T07:09:29;2.20;;;0.90;;
6791;SDS011;3433;48.730;9.108;2023-04-23T07:11:56;0.90;;;0.80;;
6791;SDS011;3433;48.730;9.108;2023-04-23T07:14:23;1.13;;;0.80;;
6791;SDS011;3433;48.730;9.108;2023-04-23T07:16:50;1.00;;;0.80;;
6791;SDS011;3433;48.730;9.108;2023-04-23T07:19:18;1.03;;;1.00;;
6791;SDS011;3433;48.730;9.108;2023-04-23T07:21:46;2.50;;;1.20;;
6791;SDS011;3433;48.730;9.108;2023-04-23T07:24:13;1.63;;;1.00;;
6791;SDS011;3433;48.730;9.108;2023-04-23T07:26:40;2.77;;;0.97;;
6791;SDS011;3433;48.730;9.108;2023-04-23T07:29:07;1.00;;;0.87;;
6791;SDS011;3433;48.730;9.108;2023-04-23T07:31:35;1.57;;;1.00;;
6791;SDS011;3433;48.730;9.108;2023-04-23T07:34:05;1.60;;;1.50;;
6791;SDS011;3433;48.730;9.108;2023-04-23T07:36:33;2.50;;;1.63;;
6791;SDS011;3433;48.730;9.108;2023-04-23T07:39:01;1.83;;;1.20;;
6791;SDS011;3433;48.730;9.108;2023-04-23T07:41:29;1.67;;;1.40;;
6791;SDS011;3433;48.730;9.108;2023-04-23T07:43:56;5.10;;;2.80;;
6791;SDS011;3433;48.730;9.108;2023-04-23T07:46:23;1.67;;;1.50;;
6791;SDS011;3433;48.730;9.108;2023-04-23T07:48:50;4.23;;;2.80;;
6791;SDS011;3433;48.730;9.108;2023-04-23T07:51:17;2.50;;;1.40;;
6791;SDS011;3433;48.730;9.108;2023-04-23T07:53:46;1.53;;;1.43;;
6791;SDS011;3433;48.730;9.108;2023-04-23T07:56:16;2.13;;;1.50;;
6791;SDS011;3433;48.730;9.108;2023-04-23T07:58:43;1.30;;;1.20;;
6791;SDS011;3433;48.730;9.108;2023-04-23T08:01:10;1.30;;;1.20;;
6791;SDS011;3433;48.730;9.108;2023-04-23T08:03:37;2.57;;;1.70;;
6791;SDS011;3433;48.730;9.108;2023-04-23T08:06:05;2.43;;;1.43;;
6791;SDS011;3433;48.730;9.108;2023-04-23T08:08:32;3.10;;;2.80;;
6791;SDS011;3433;48.730;9.108;2023-04-23T08:10:59;1.80;;;1.50;;
6791;SDS011;3433;48.730;9.108;2023-04-23T08:13:27;5.90;;;2.07;;
6791;SDS011;3433;48.730;9.108;2023-04-23T08:15:54;1.60;;;1.50;;
6791;SDS011;3433;48.730;9.108;2023-04-23T08:18:21;3.50;;;1.73;;
6791;SDS011;3433;48.730;9.108;2023-04-23T08:20:47;5.40;;;1.50;;
6791;SDS011;3433;48.730;9.108;2023-04-23T08:23:15;1.73;;;1.50;;
6791;SDS011;3433;48.730;9.108;2023-04-23T08:25:42;1.30;;;1.20;;
6791;SDS011;3433;48.730;9.108;2023-04-23T08:28:09;1.93;;;1.40;;
6791;SDS011;3433;48.730;9.108;2023-04-23T08:30:37;1.90;;;1.50;;
6791;SDS011;3433;48.730;9.108;2023-04-23T08:33:04;1.90;;;1.70;;
6791;SDS011;3433;48.730;9.108;2023-04-23T08:35:31;2.60;;;1.53;;
6791;SDS011;3433;48.730;9.108;2023-04-23T08:37:58;3.00;;;2.20;;
6791;SDS011;3433;48.730;9.108;2023-04-23T08:40:26;4.67;;;2.93;;
6791;SDS011;3433;48.730;9.108;2023-04-23T08:42:57;2.03;;;1.70;;
6791;SDS011;3433;48.730;9.108;2023-04-23T08:45:27;4.33;;;1.80;;
6791;SDS011;3433;48.730;9.108;2023-04-23T08:47:57;1.10;;;0.90;;
6791;SDS011;3433;48.730;9.108;2023-04-23T08:50:25;1.90;;;1.20;;
6791;SDS011;3433;48.730;9.108;2023-04-23T08:52:54;2.50;;;1.30;;
6791;SDS011;3433;48.730;9.108;2023-04-23T08:55:22;2.20;;;1.43;;
6791;SDS011;3433;48.730;9.108;2023-04-23T08:57:55;1.73;;;1.40;;
6791;SDS011;3433;48.730;9.108;2023-04-23T09:00:25;1.50;;;1.30;;
6791;SDS011;3433;48.730;9.108;2023-04-23T09:02:56;6.33;;;4.30;;
6791;SDS011;3433;48.730;9.108;2023-04-23T09:05:24;2.27;;;1.80;;
6791;SDS011;3433;48.730;9.108;2023-04-23T09:07:53;1.33;;;1.23;;
6791;SDS011;3433;48.730;9.108;2023-04-23T09:10:20;3.03;;;1.50;;
6791;SDS011;3433;48.730;9.108;2023-04-23T09:12:47;1.20;;;1.13;;
6791;SDS011;3433;48.730;9.108;2023-04-23T09:15:15;1.73;;;1.00;;
6791;SDS011;3433;48.730;9.108;2023-04-23T09:17:43;2.00;;;1.20;;
6791;SDS011;3433;48.730;9.108;2023-04-23T09:20:13;1.33;;;1.23;;
6791;SDS011;3433;48.730;9.108;2023-04-23T09:22:40;2.73;;;2.50;;
6791;SDS011;3433;48.730;9.108;2023-04-23T09:25:10;1.77;;;1.30;;
6791;SDS011;3433;48.730;9.108;2023-04-23T09:27:38;3.20;;;1.37;;
6791;SDS011;3433;48.730;9.108;2023-04-23T09:30:06;1.67;;;1.30;;
6791;SDS011;3433;48.730;9.108;2023-04-23T09:32:35;3.80;;;1.03;;
6791;SDS011;3433;48.730;9.108;2023-04-23T09:35:03;1.30;;;1.20;;
6791;SDS011;3433;48.730;9.108;2023-04-23T09:37:32;1.73;;;1.10;;
6791;SDS011;3433;48.730;9.108;2023-04-23T09:40:00;2.23;;;1.07;;
6791;SDS011;3433;48.730;9.108;2023-04-23T09:42:28;2.40;;;1.20;;
6791;SDS011;3433;48.730;9.108;2023-04-23T09:44:56;1.20;;;1.10;;
6791;SDS011;3433;48.730;9.108;2023-04-23T09:47:25;1.50;;;1.40;;
6791;SDS011;3433;48.730;9.108;2023-04-23T09:49:52;1.60;;;1.50;;
6791;SDS011;3433;48.730;9.108;2023-04-23T09:52:19;1.30;;;1.20;;
6791;SDS011;3433;48.730;9.108;2023-04-23T09:54:48;1.57;;;1.40;;
6791;SDS011;3433;48.730;9.108;2023-04-23T09:57:15;2.03;;;1.20;;
6791;SDS011;3433;48.730;9.108;2023-04-23T09:59:42;1.20;;;1.03;;
6791;SDS011;3433;48.730;9.108;2023-04-23T10:02:09;1.60;;;1.27;;
6791;SDS011;3433;48.730;9.108;2023-04-23T10:04:37;2.03;;;1.10;;
6791;SDS011;3433;48.730;9.108;2023-04-23T10:07:04;1.40;;;1.30;;
6791;SDS011;3433;48.730;9.108;2023-04-23T10:09:32;1.40;;;1.30;;
6791;SDS011;3433;48.730;9.108;2023-04-23T10:12:01;2.10;;;1.23;;
6791;SDS011;3433;48.730;9.108;2023-04-23T10:14:28;1.37;;;1.27;;
6791;SDS011;3433;48.730;9.108;2023-04-23T10:16:56;1.63;;;1.53;;
6791;SDS011;3433;48.730;9.108;2023-04-23T10:19:24;6.53;;;2.60;;
6791;SDS011;3433;48.730;9.108;2023-04-23T10:21:54;1.40;;;1.30;;
6791;SDS011;3433;48.730;9.108;2023-04-23T10:24:24;1.43;;;0.93;;
6791;SDS011;3433;48.730;9.108;2023-04-23T10:26:55;1.93;;;1.70;;
6791;SDS011;3433;48.730;9.108;2023-04-23T10:29:27;7.10;;;2.90;;
6791;SDS011;3433;48.730;9.108;2023-04-23T10:31:55;1.73;;;1.63;;
6791;SDS011;3433;48.730;9.108;2023-04-23T10:34:24;1.57;;;1.00;;
6791;SDS011;3433;48.730;9.108;2023-04-23T10:36:52;2.10;;;1.27;;
6791;SDS011;3433;48.730;9.108;2023-04-23T10:39:20;1.60;;;1.17;;
6791;SDS011;3433;48.730;9.108;2023-04-23T10:41:49;1.70;;;1.13;;
6791;SDS011;3433;48.730;9.108;2023-04-23T10:44:18;7.23;;;1.30;;
6791;SDS011;3433;48.730;9.108;2023-04-23T10:46:54;1.30;;;1.20;;
6791;SDS011;3433;48.730;9.108;2023-04-23T10:49:28;1.23;;;1.13;;
6791;SDS011;3433;48.730;9.108;2023-04-23T10:51:59;1.40;;;1.03;;
6791;SDS011;3433;48.730;9.108;2023-04-23T10:54:27;1.00;;;1.00;;
6791;SDS011;3433;48.730;9.108;2023-04-23T10:56:57;2.83;;;1.40;;
6791;SDS011;3433;48.730;9.108;2023-04-23T10:59:25;1.13;;;1.03;;
6791;SDS011;3433;48.730;9.108;2023-04-23T11:01:56;2.77;;;1.00;;
6791;SDS011;3433;48.730;9.108;2023-04-23T11:04:25;4.20;;;1.00;;
6791;SDS011;3433;48.730;9.108;2023-04-23T11:06:56;2.00;;;1.53;;
6791;SDS011;3433;48.730;9.108;2023-04-23T11:09:38;2.90;;;1.23;;
6791;SDS011;3433;48.730;9.108;2023-04-23T11:12:07;0.93;;;0.80;;
6791;SDS011;3433;48.730;9.108;2023-04-23T11:14:40;1.73;;;1.13;;
6791;SDS011;3433;48.730;9.108;2023-04-23T11:17:13;1.43;;;0.93;;
6791;SDS011;3433;48.730;9.108;2023-04-23T11:19:41;1.10;;;0.90;;
6791;SDS011;3433;48.730;9.108;2023-04-23T11:22:34;0.80;;;0.70;;
6791;SDS011;3433;48.730;9.108;2023-04-23T11:25:02;1.10;;;1.00;;
6791;SDS011;3433;48.730;9.108;2023-04-23T11:27:30;1.70;;;1.20;;
6791;SDS011;3433;48.730;9.108;2023-04-23T11:29:57;1.20;;;1.10;;
6791;SDS011;3433;48.730;9.108;2023-04-23T11:32:26;1.17;;;1.07;;
6791;SDS011;3433;48.730;9.108;2023-04-23T11:34:53;2.17;;;1.20;;
6791;SDS011;3433;48.730;9.108;2023-04-23T11:37:22;1.00;;;0.90;;
6791;SDS011;3433;48.730;9.108;2023-04-23T11:39:49;0.80;;;0.80;;
6791;SDS011;3433;48.730;9.108;2023-04-23T11:42:16;1.93;;;1.00;;
6791;SDS011;3433;48.730;9.108;2023-04-23T11:44:45;0.80;;;0.80;;
6791;SDS011;3433;48.730;9.108;2023-04-23T11:47:13;1.20;;;1.10;;
6791;SDS011;3433;48.730;9.108;2023-04-23T11:49:42;0.90;;;0.90;;
6791;SDS011;3433;48.730;9.108;2023-04-23T11:52:09;1.03;;;0.93;;
6791;SDS011;3433;48.730;9.108;2023-04-23T11:54:38;1.20;;;1.10;;
6791;SDS011;3433;48.730;9.108;2023-04-23T11:57:06;0.73;;;0.73;;
6791;SDS011;3433;48.730;9.108;2023-04-23T11:59:34;1.00;;;0.90;;
6791;SDS011;3433;48.730;9.108;2023-04-23T12:02:01;0.97;;;0.87;;
6791;SDS011;3433;48.730;9.108;2023-04-23T12:04:28;0.80;;;0.80;;
6791;SDS011;3433;48.730;9.108;2023-04-23T12:06:57;1.00;;;0.90;;
6791;SDS011;3433;48.730;9.108;2023-04-23T12:09:25;1.17;;;0.90;;
6791;SDS011;3433;48.730;9.108;2023-04-23T12:11:53;1.20;;;1.10;;
6791;SDS011;3433;48.730;9.108;2023-04-23T12:14:24;1.00;;;0.80;;
6791;SDS011;3433;48.730;9.108;2023-04-23T12:16:56;1.53;;;1.10;;
6791;SDS011;3433;48.730;9.108;2023-04-23T12:19:25;3.30;;;1.07;;
6791;SDS011;3433;48.730;9.108;2023-04-23T12:21:53;1.10;;;0.97;;
6791;SDS011;3433;48.730;9.108;2023-04-23T12:24:24;1.10;;;1.00;;
6791;SDS011;3433;48.730;9.108;2023-04-23T12:26:52;1.13;;;1.07;;
6791;SDS011;3433;48.730;9.108;2023-04-23T12:29:22;1.73;;;0.83;;
6791;SDS011;3433;48.730;9.108;2023-04-23T12:31:56;1.10;;;1.00;;
6791;SDS011;3433;48.730;9.108;2023-04-23T12:34:24;1.57;;;0.90;;
6791;SDS011;3433;48.730;9.108;2023-04-23T12:36:51;0.90;;;0.90;;
6791;SDS011;3433;48.730;9.108;2023-04-23T12:39:21;1.20;;;1.10;;
6791;SDS011;3433;48.730;9.108;2023-04-23T12:41:55;2.23;;;1.03;;
6791;SDS011;3433;48.730;9.108;2023-04-23T12:44:25;1.17;;;1.10;;
6791;SDS011;3433;48.730;9.108;2023-04-23T12:46:56;0.90;;;0.90;;
6791;SDS011;3433;48.730;9.108;2023-04-23T12:49:24;1.00;;;0.90;;
6791;SDS011;3433;48.730;9.108;2023-04-23T12:51:52;1.37;;;1.10;;
6791;SDS011;3433;48.730;9.108;2023-04-23T12:54:21;0.93;;;0.93;;
6791;SDS011;3433;48.730;9.108;2023-04-23T12:56:50;2.13;;;1.07;;
6791;SDS011;3433;48.730;9.108;2023-04-23T12:59:17;2.57;;;0.93;;
6791;SDS011;3433;48.730;9.108;2023-04-23T13:01:44;1.20;;;1.10;;
6791;SDS011;3433;48.730;9.108;2023-04-23T13:04:11;1.40;;;0.90;;
6791;SDS011;3433;48.730;9.108;2023-04-23T13:06:38;1.80;;;0.97;;
6791;SDS011;3433;48.730;9.108;2023-04-23T13:09:05;1.20;;;0.83;;
6791;SDS011;3433;48.730;9.108;2023-04-23T13:11:34;1.10;;;1.10;;
6791;SDS011;3433;48.730;9.108;2023-04-23T13:14:02;1.57;;;0.90;;
6791;SDS011;3433;48.730;9.108;2023-04-23T13:16:29;1.30;;;1.00;;
6791;SDS011;3433;48.730;9.108;2023-04-23T13:18:56;1.67;;;1.10;;
6791;SDS011;3433;48.730;9.108;2023-04-23T13:21:23;1.33;;;1.17;;
6791;SDS011;3433;48.730;9.108;2023-04-23T13:23:50;1.83;;;1.20;;
6791;SDS011;3433;48.730;9.108;2023-04-23T13:26:17;1.37;;;1.23;;
6791;SDS011;3433;48.730;9.108;2023-04-23T13:28:44;1.43;;;0.80;;
6791;SDS011;3433;48.730;9.108;2023-04-23T13:31:12;2.10;;;0.97;;
6791;SDS011;3433;48.730;9.108;2023-04-23T13:33:39;2.23;;;1.20;;
6791;SDS011;3433;48.730;9.108;2023-04-23T13:36:06;3.70;;;1.10;;
6791;SDS011;3433;48.730;9.108;2023-04-23T13:38:34;2.00;;;1.00;;
6791;SDS011;3433;48.730;9.108;2023-04-23T13:41:01;1.90;;;1.10;;
6791;SDS011;3433;48.730;9.108;2023-04-23T13:43:28;1.87;;;1.10;;
6791;SDS011;3433;48.730;9.108;2023-04-23T13:45:55;1.23;;;1.00;;
6791;SDS011;3433;48.730;9.108;2023-04-23T13:48:24;1.43;;;0.90;;
6791;SDS011;3433;48.730;9.108;2023-04-23T13:50:54;1.73;;;0.80;;
6791;SDS011;3433;48.730;9.108;2023-04-23T13:53:21;1.20;;;1.10;;
6791;SDS011;3433;48.730;9.108;2023-04-23T13:55:48;3.33;;;0.90;;
6791;SDS011;3433;48.730;9.108;2023-04-23T13:58:15;1.00;;;0.90;;
6791;SDS011;3433;48.730;9.108;2023-04-23T14:00:43;1.17;;;0.87;;
6791;SDS011;3433;48.730;9.108;2023-04-23T14:03:09;1.47;;;1.37;;
6791;SDS011;3433;48.730;9.108;2023-04-23T14:05:38;1.00;;;0.90;;
6791;SDS011;3433;48.730;9.108;2023-04-23T14:08:05;1.00;;;0.90;;
6791;SDS011;3433;48.730;9.108;2023-04-23T14:10:32;3.50;;;1.27;;
6791;SDS011;3433;48.730;9.108;2023-04-23T14:12:59;1.77;;;1.03;;
6791;SDS011;3433;48.730;9.108;2023-04-23T14:15:27;2.70;;;1.20;;
6791;SDS011;3433;48.730;9.108;2023-04-23T14:17:54;2.23;;;1.00;;
6791;SDS011;3433;48.730;9.108;2023-04-23T14:20:21;2.20;;;1.20;;
6791;SDS011;3433;48.730;9.108;2023-04-23T14:22:49;1.87;;;1.20;;
6791;SDS011;3433;48.730;9.108;2023-04-23T14:25:28;1.67;;;1.17;;
6791;SDS011;3433;48.730;9.108;2023-04-23T14:27:56;1.00;;;0.80;;
6791;SDS011;3433;48.730;9.108;2023-04-23T14:30:28;1.73;;;1.57;;
6791;SDS011;3433;48.730;9.108;2023-04-23T14:32:55;1.73;;;1.10;;
6791;SDS011;3433;48.730;9.108;2023-04-23T14:35:22;1.23;;;1.13;;
6791;SDS011;3433;48.730;9.108;2023-04-23T14:37:51;1.23;;;1.10;;
6791;SDS011;3433;48.730;9.108;2023-04-23T14:40:18;1.20;;;1.10;;
6791;SDS011;3433;48.730;9.108;2023-04-23T14:42:45;1.60;;;1.20;;
6791;SDS011;3433;48.730;9.108;2023-04-23T14:45:13;2.50;;;1.57;;
6791;SDS011;3433;48.730;9.108;2023-04-23T14:49:32;2.27;;;1.50;;
6791;SDS011;3433;48.730;9.108;2023-04-23T14:51:59;1.20;;;0.90;;
6791;SDS011;3433;48.730;9.108;2023-04-23T14:54:27;1.30;;;1.20;;
6791;SDS011;3433;48.730;9.108;2023-04-23T14:56:57;1.23;;;1.07;;
6791;SDS011;3433;48.730;9.108;2023-04-23T14:59:23;1.43;;;1.17;;
6791;SDS011;3433;48.730;9.108;2023-04-23T15:01:53;1.20;;;1.10;;
6791;SDS011;3433;48.730;9.108;2023-04-23T15:04:20;2.10;;;1.10;;
6791;SDS011;3433;48.730;9.108;2023-04-23T15:06:49;2.53;;;1.47;;
6791;SDS011;3433;48.730;9.108;2023-04-23T15:09:15;3.20;;;1.30;;
6791;SDS011;3433;48.730;9.108;2023-04-23T15:11:42;2.63;;;1.17;;
6791;SDS011;3433;48.730;9.108;2023-04-23T15:14:17;1.87;;;1.00;;
6791;SDS011;3433;48.730;9.108;2023-04-23T15:16:45;1.87;;;1.00;;
6791;SDS011;3433;48.730;9.108;2023-04-23T15:19:12;1.33;;;1.10;;
6791;SDS011;3433;48.730;9.108;2023-04-23T15:21:41;1.37;;;1.27;;